This is the latest recevied weather packets stored in our database for station/object VA2IEI-13. If no packets are shown the sender has not sent any weather packets the latest 10 day(s).
| Time | Temp. | Humidity | Pressure | Rain* | Wind** | Luminosity | Snow |
|---|---|---|---|---|---|---|---|
| 1777805468 | 3.33° C | 89% | 1012.1 hPa | 0 mm | - | - | - |
| 1777803049 | 2.22° C | 90% | 1012.3 hPa | 0 mm | - | - | - |
| 1777801821 | 2.78° C | 91% | 1012.2 hPa | 0 mm | - | - | - |
| 1777799447 | 2.78° C | 92% | 1012.1 hPa | 0 mm | - | - | - |
| 1777798239 | 2.78° C | 92% | 1012.2 hPa | 0 mm | - | - | - |
| 1777797633 | 3.33° C | 92% | 1012.4 hPa | 0 mm | - | - | - |
| 1777795819 | 3.33° C | 92% | 1012.5 hPa | 0 mm | - | - | - |
| 1777795213 | 3.33° C | 92% | 1012.6 hPa | 0 mm | - | - | - |
| 1777794609 | 3.33° C | 92% | 1012.5 hPa | 0 mm | - | - | - |
| 1777794025 | 3.33° C | 92% | 1012.5 hPa | 0 mm | - | - | - |
| 1777790458 | 4.44° C | 92% | 1012.4 hPa | 0 mm | - | - | - |
| 1777787438 | 4.44° C | 92% | 1013 hPa | 0 mm | - | - | - |
| 1777780856 | 4.44° C | 89% | 1013.6 hPa | 0 mm | - | - | - |
| 1777780231 | 4.44° C | 89% | 1013.7 hPa | 0 mm | - | - | - |
| 1777777819 | 5° C | 88% | 1013.8 hPa | 0 mm | - | - | - |
| 1777773067 | 5° C | 90% | 1014.1 hPa | 0 mm | - | - | - |
| 1777770009 | 5° C | 88% | 1013.8 hPa | 0 mm | - | - | - |
| 1777761657 | 7.78° C | 81% | 1013.2 hPa | 0 mm | - | - | - |
| 1777761051 | 7.22° C | 81% | 1013.3 hPa | 0 mm | - | - | - |
| 1777758026 | 7.22° C | 85% | 1013.5 hPa | 0.25 mm | - | - | - |
| 1777755674 | 7.22° C | 85% | 1013.5 hPa | 0.51 mm | - | - | - |
| 1777753256 | 7.22° C | 82% | 1013.6 hPa | 0.25 mm | - | - | - |
| 1777745468 | 10° C | 58% | 1013.6 hPa | 0 mm | - | - | - |
| 1777741217 | 10° C | 54% | 1013.8 hPa | 0 mm | - | - | - |
| 1777740068 | 10.56° C | 54% | 1013.9 hPa | 0 mm | - | - | - |
* Rain latest hour (hover to see other rain measurements)
** Current wind speed in m/s (hover to see current wind gust speed)